Time;durP1;ratioP1;P1;durP2;ratioP2;P2;SDS_P1;SDS_P2;PMS_P1;PMS_P2;Temp;Humidity;BMP_temperature;BMP_pressure;BME280_temperature;BME280_humidity;BME280_pressure;Samples;Min_cycle;Max_cycle;Signal;HPM_P1;HPM_P2
2022/12/25 00:02:06;;;;;;;16.85;5.85;;;;;;;7.25;100.00;101311.09;5013387;28;20045;-65
2022/12/25 00:04:31;;;;;;;17.25;6.82;;;;;;;7.27;100.00;101308.59;5023098;28;20028;-65
2022/12/25 00:06:58;;;;;;;20.23;6.22;;;;;;;7.27;100.00;101294.03;5014482;28;20021;-65
2022/12/25 00:09:23;;;;;;;19.88;6.28;;;;;;;7.26;100.00;101297.41;5023528;28;20532;-65
2022/12/25 00:11:49;;;;;;;17.77;6.03;;;;;;;7.27;100.00;101303.44;5017213;28;20104;-65
2022/12/25 00:14:14;;;;;;;18.08;6.20;;;;;;;7.27;100.00;101300.84;5019916;28;20057;-65
2022/12/25 00:16:39;;;;;;;16.65;6.03;;;;;;;7.27;100.00;101298.28;5013393;28;20087;-66
2022/12/25 00:19:04;;;;;;;22.23;7.47;;;;;;;7.28;100.00;101302.66;5011431;28;20025;-65
2022/12/25 00:21:30;;;;;;;25.25;6.63;;;;;;;7.27;100.00;101306.91;5023628;28;20433;-66
2022/12/25 00:23:57;;;;;;;14.95;6.50;;;;;;;7.30;100.00;101308.78;5021388;28;20030;-65
2022/12/25 00:26:23;;;;;;;21.50;7.20;;;;;;;7.31;100.00;101305.38;5015810;28;20053;-65
2022/12/25 00:28:53;;;;;;;20.85;7.82;;;;;;;7.28;100.00;101298.38;5023872;28;20027;-65
2022/12/25 00:31:19;;;;;;;16.63;6.53;;;;;;;7.31;100.00;101300.22;5010271;28;20056;-65
2022/12/25 00:33:46;;;;;;;13.52;7.22;;;;;;;7.32;100.00;101309.75;5023400;28;20095;-65
2022/12/25 00:36:13;;;;;;;15.05;7.35;;;;;;;7.31;100.00;101303.69;5017558;28;20268;-66
2022/12/25 00:38:40;;;;;;;21.77;7.40;;;;;;;7.32;100.00;101307.19;5029590;28;20128;-65
2022/12/25 00:41:07;;;;;;;21.98;6.82;;;;;;;7.31;100.00;101306.28;5029968;28;20664;-65
2022/12/25 00:43:32;;;;;;;17.27;7.50;;;;;;;7.30;100.00;101299.34;5017259;28;20037;-66
2022/12/25 00:46:00;;;;;;;22.48;7.80;;;;;;;7.31;100.00;101292.50;5017045;28;20021;-65
2022/12/25 00:48:27;;;;;;;18.52;7.10;;;;;;;7.30;100.00;101299.34;5018365;28;20037;-65
2022/12/25 00:50:58;;;;;;;20.02;8.07;;;;;;;7.30;100.00;101290.72;5023246;28;20050;-65
2022/12/25 00:53:24;;;;;;;20.38;7.85;;;;;;;7.31;100.00;101300.22;5010141;28;20036;-65
2022/12/25 00:55:52;;;;;;;16.75;7.80;;;;;;;7.31;100.00;101302.81;5029463;28;20033;-65
2022/12/25 00:58:18;;;;;;;23.95;7.47;;;;;;;7.30;100.00;101290.72;5016710;28;20029;-65
2022/12/25 01:00:43;;;;;;;16.23;8.68;;;;;;;7.30;100.00;101289.00;5016590;28;20107;-65
2022/12/25 01:03:08;;;;;;;22.50;8.15;;;;;;;7.31;100.00;101285.66;5016389;28;20030;-66
2022/12/25 01:05:33;;;;;;;20.05;8.13;;;;;;;7.31;100.00;101280.50;5021653;28;20025;-65
2022/12/25 01:07:59;;;;;;;26.65;8.05;;;;;;;7.32;100.00;101276.25;5022039;28;20366;-65
2022/12/25 01:10:24;;;;;;;16.83;7.55;;;;;;;7.32;100.00;101271.94;5011660;28;20018;-65
2022/12/25 01:12:50;;;;;;;18.98;7.85;;;;;;;7.32;100.00;101271.09;5010460;28;20057;-66
2022/12/25 01:15:16;;;;;;;17.95;8.10;;;;;;;7.32;100.00;101269.38;5012140;28;20030;-65
2022/12/25 01:17:43;;;;;;;20.08;7.75;;;;;;;7.34;100.00;101269.44;5011241;28;20087;-65
2022/12/25 01:20:10;;;;;;;15.80;7.60;;;;;;;7.35;100.00;101270.34;5028604;28;20056;-65
2022/12/25 01:22:36;;;;;;;17.90;8.30;;;;;;;7.33;100.00;101262.53;5028920;28;20096;-65
2022/12/25 01:25:01;;;;;;;21.17;7.90;;;;;;;7.33;100.00;101270.25;5027833;28;20029;-65
2022/12/25 01:27:27;;;;;;;14.27;7.60;;;;;;;7.33;100.00;101284.03;5027664;28;20047;-65
2022/12/25 01:29:52;;;;;;;19.27;7.47;;;;;;;7.35;100.00;101286.69;5028769;28;20060;-66
2022/12/25 01:32:17;;;;;;;16.00;7.57;;;;;;;7.35;100.00;101291.84;5028423;28;20026;-65
2022/12/25 01:34:42;;;;;;;20.02;7.47;;;;;;;7.34;100.00;101295.22;5029072;28;20545;-65
2022/12/25 01:37:09;;;;;;;16.38;8.35;;;;;;;7.34;100.00;101302.97;5026207;28;20041;-65
2022/12/25 01:39:34;;;;;;;19.02;9.15;;;;;;;7.36;100.00;101298.78;5027615;28;20056;-65
2022/12/25 01:41:59;;;;;;;18.42;7.90;;;;;;;7.38;100.00;101298.84;5026692;28;20430;-66
2022/12/25 01:44:34;;;;;;;17.20;7.85;;;;;;;7.39;100.00;101300.66;5028083;28;20033;-65
2022/12/25 01:46:59;;;;;;;17.05;6.88;;;;;;;7.42;100.00;101299.13;5025743;28;20103;-66
2022/12/25 01:49:25;;;;;;;13.00;7.25;;;;;;;7.44;100.00;101302.66;5027452;28;20076;-65
2022/12/25 01:51:59;;;;;;;16.35;7.38;;;;;;;7.44;100.00;101307.81;5025945;28;20073;-65
2022/12/25 01:54:33;;;;;;;17.17;7.53;;;;;;;7.47;100.00;101311.34;5027637;28;20033;-65
2022/12/25 01:57:01;;;;;;;17.92;7.45;;;;;;;7.47;100.00;101311.34;5026376;28;20029;-66
2022/12/25 01:59:28;;;;;;;19.70;8.07;;;;;;;7.48;100.00;101326.91;5018479;28;20060;-65
2022/12/25 02:01:55;;;;;;;18.15;7.68;;;;;;;7.48;100.00;101323.44;5012401;28;20031;-65
2022/12/25 02:04:37;;;;;;;15.65;6.80;;;;;;;7.50;100.00;101316.69;5027225;28;20063;-65
2022/12/25 02:07:23;;;;;;;16.10;8.07;;;;;;;7.51;100.00;101316.75;5025465;28;20465;-65
2022/12/25 02:09:50;;;;;;;13.95;7.55;;;;;;;7.53;100.00;101316.84;5025307;28;20045;-65
2022/12/25 02:12:36;;;;;;;18.17;6.90;;;;;;;7.53;100.00;101317.72;5026709;28;20087;-66
2022/12/25 02:15:08;;;;;;;16.50;7.00;;;;;;;7.55;100.00;101315.22;5023716;28;20104;-65
2022/12/25 02:17:39;;;;;;;15.38;6.63;;;;;;;7.56;100.00;101315.31;5025797;28;20029;-66
2022/12/25 02:20:23;;;;;;;;;;;;;;;7.59;100.00;101313.69;5022144;28;20037;-66
2022/12/25 02:23:25;;;;;;;17.48;6.78;;;;;;;7.57;100.00;101335.13;5023176;28;20062;-65
2022/12/25 02:26:09;;;;;;;21.35;7.38;;;;;;;7.59;100.00;101322.28;5018682;28;20036;-65
2022/12/25 02:28:40;;;;;;;17.35;7.43;;;;;;;7.59;100.00;101335.19;5027067;28;20524;-66
2022/12/25 02:31:21;;;;;;;;;;;;;;;7.61;100.00;101335.31;5015303;28;20022;-65
2022/12/25 02:34:02;;;;;;;13.52;7.63;;;;;;;7.59;100.00;101317.13;5027818;28;20344;-65
2022/12/25 02:36:57;;;;;;;13.15;6.90;;;;;;;7.57;100.00;101311.91;5008287;28;20104;-65
2022/12/25 02:40:05;;;;;;;17.23;7.10;;;;;;;7.60;100.00;101313.75;5013273;28;20041;-65
2022/12/25 03:07:43;;;;;;;14.00;6.40;;;;;;;7.58;100.00;101268.94;5014856;28;20049;-65
2022/12/25 03:13:03;;;;;;;14.82;6.03;;;;;;;7.58;100.00;101263.78;5020533;28;20033;-65
2022/12/25 03:18:17;;;;;;;11.95;6.43;;;;;;;7.56;100.00;101231.88;5018632;28;20107;-65
2022/12/25 03:28:59;;;;;;;11.68;5.95;;;;;;;7.49;100.00;101219.47;5025892;28;20458;-65
2022/12/25 03:31:36;;;;;;;14.85;5.53;;;;;;;7.45;100.00;101216.75;5018519;28;20109;-65
2022/12/25 04:36:12;;;;;;;9.55;3.42;;;;;;;7.24;100.00;101205.31;5028950;28;20040;-65
2022/12/25 04:38:39;;;;;;;8.00;3.25;;;;;;;7.24;100.00;101211.38;5028768;28;20418;-65
2022/12/25 04:41:04;;;;;;;8.93;3.78;;;;;;;7.25;100.00;101209.69;5028172;28;20033;-65
2022/12/25 04:43:29;;;;;;;9.95;3.20;;;;;;;7.24;100.00;101210.47;5029478;28;20040;-65
2022/12/25 04:45:57;;;;;;;8.27;3.92;;;;;;;7.26;100.00;101214.03;5027998;28;20025;-65
2022/12/25 04:48:24;;;;;;;7.78;3.10;;;;;;;7.27;100.00;101210.63;5017561;28;20045;-65
2022/12/25 04:50:50;;;;;;;7.60;3.30;;;;;;;7.29;100.00;101198.72;5009394;28;20057;-65
2022/12/25 04:53:16;;;;;;;8.77;3.30;;;;;;;7.27;100.00;101187.44;5021230;28;20413;-66
2022/12/25 04:55:42;;;;;;;7.78;4.40;;;;;;;7.31;100.00;101189.38;5028168;28;20036;-65
2022/12/25 04:58:07;;;;;;;13.27;4.65;;;;;;;7.30;100.00;101192.75;5017076;28;20034;-65
2022/12/25 05:00:33;;;;;;;8.63;3.55;;;;;;;7.29;100.00;101189.28;5012956;28;20036;-65
2022/12/25 05:02:58;;;;;;;6.47;3.53;;;;;;;7.31;100.00;101189.38;5011027;28;20033;-65
2022/12/25 05:05:23;;;;;;;7.78;3.22;;;;;;;7.32;100.00;101188.56;5011042;28;20075;-66
2022/12/25 05:07:49;;;;;;;7.57;3.83;;;;;;;7.33;100.00;101182.59;5011962;28;20029;-65
2022/12/25 05:10:14;;;;;;;6.28;3.42;;;;;;;7.31;100.00;101186.78;5015554;28;20037;-65
2022/12/25 05:12:40;;;;;;;5.68;3.28;;;;;;;7.29;100.00;101183.25;5011955;28;20099;-65
2022/12/25 05:15:05;;;;;;;5.90;2.85;;;;;;;7.28;100.00;101181.47;5024838;28;20044;-65
2022/12/25 05:17:30;;;;;;;6.18;2.90;;;;;;;7.27;100.00;101179.69;5013148;28;20461;-66
2022/12/25 05:19:56;;;;;;;5.10;2.70;;;;;;;7.28;100.00;101184.97;5017140;28;20493;-65
2022/12/25 05:22:21;;;;;;;6.05;3.38;;;;;;;7.28;100.00;101184.06;5013648;28;20042;-65
2022/12/25 05:24:46;;;;;;;6.57;3.42;;;;;;;7.29;100.00;101185.81;5018288;28;20381;-65
2022/12/25 05:27:12;;;;;;;8.68;2.75;;;;;;;7.29;100.00;101186.72;5013292;28;20034;-65
2022/12/25 05:29:38;;;;;;;6.18;2.85;;;;;;;7.31;100.00;101176.47;5022068;28;20025;-65
2022/12/25 05:32:03;;;;;;;9.07;3.05;;;;;;;7.32;100.00;101165.38;5010070;28;20363;-65
2022/12/25 05:34:28;;;;;;;10.30;3.25;;;;;;;7.36;100.00;101162.13;5007296;28;20029;-65
2022/12/25 05:36:55;;;;;;;8.32;2.80;;;;;;;7.37;100.00;101143.28;5010358;28;20112;-65
2022/12/25 05:39:20;;;;;;;4.30;2.60;;;;;;;7.38;100.00;101150.19;5009010;28;20057;-65
2022/12/25 05:41:46;;;;;;;6.47;2.55;;;;;;;7.42;100.00;101144.41;5009998;28;20365;-65
2022/12/25 05:44:11;;;;;;;5.25;2.42;;;;;;;7.45;100.00;101160.00;5014697;28;20096;-65
2022/12/25 05:46:36;;;;;;;8.35;2.88;;;;;;;7.50;100.00;101156.78;5017148;28;20512;-65
2022/12/25 05:49:02;;;;;;;5.80;2.80;;;;;;;7.50;100.00;101159.38;5009680;28;20026;-65
2022/12/25 05:51:27;;;;;;;7.57;2.38;;;;;;;7.52;100.00;101155.19;5009106;28;20045;-65
2022/12/25 05:53:52;;;;;;;8.52;2.67;;;;;;;7.54;100.00;101151.84;5012483;28;20033;-65
2022/12/25 05:56:17;;;;;;;4.40;2.15;;;;;;;7.55;100.00;101160.47;5028113;28;20021;-65
2022/12/25 05:58:43;;;;;;;5.70;2.08;;;;;;;7.56;100.00;101159.66;5016166;28;20045;-65
2022/12/25 06:01:14;;;;;;;9.23;2.90;;;;;;;7.57;100.00;101148.53;5027818;28;20113;-65
2022/12/25 06:03:39;;;;;;;7.65;2.15;;;;;;;7.58;100.00;101139.97;5027410;28;20389;-66
2022/12/25 06:06:06;;;;;;;5.65;2.20;;;;;;;7.59;100.00;101136.59;5026743;28;20029;-65
2022/12/25 06:08:33;;;;;;;7.63;2.42;;;;;;;7.59;100.00;101131.41;5024075;28;20525;-65
2022/12/25 06:10:58;;;;;;;6.28;2.70;;;;;;;7.61;100.00;101134.97;5025862;28;20033;-65
2022/12/25 06:13:23;;;;;;;5.05;2.10;;;;;;;7.63;100.00;101143.66;5023171;28;20041;-65
2022/12/25 06:15:48;;;;;;;5.50;2.38;;;;;;;7.63;100.00;101127.31;5025253;28;20428;-66
2022/12/25 06:18:14;;;;;;;5.47;2.53;;;;;;;7.64;100.00;101145.47;5023371;28;20018;-65
2022/12/25 06:20:40;;;;;;;7.35;2.40;;;;;;;7.64;100.00;101127.41;5026227;28;20049;-65
2022/12/25 06:23:05;;;;;;;6.00;2.75;;;;;;;7.64;100.00;101122.25;5023329;28;20026;-65
2022/12/25 06:25:30;;;;;;;6.40;2.53;;;;;;;7.63;100.00;101107.56;5025226;28;20064;-66
2022/12/25 06:27:55;;;;;;;6.35;2.80;;;;;;;7.64;100.00;101109.34;5023421;28;20025;-65
2022/12/25 06:30:21;;;;;;;7.80;2.50;;;;;;;7.64;100.00;101111.94;5025235;28;20176;-65
2022/12/25 06:32:46;;;;;;;7.28;2.80;;;;;;;7.65;100.00;101115.38;5021850;28;20030;-65
2022/12/25 06:35:11;;;;;;;3.92;2.45;;;;;;;7.65;100.00;101111.09;5021965;28;20028;-65
2022/12/25 06:37:37;;;;;;;5.03;2.20;;;;;;;7.66;100.00;101112.00;5021041;28;20034;-66
2022/12/25 06:40:02;;;;;;;4.75;1.92;;;;;;;7.66;100.00;101102.53;5020296;28;20466;-65
2022/12/25 06:42:27;;;;;;;4.22;1.98;;;;;;;7.66;100.00;101088.78;5021986;28;20029;-65
2022/12/25 06:44:53;;;;;;;3.30;2.10;;;;;;;7.65;100.00;101093.03;5022603;28;20061;-65
2022/12/25 06:47:18;;;;;;;5.60;2.20;;;;;;;7.66;100.00;101087.06;5024245;28;20489;-65
2022/12/25 06:49:43;;;;;;;5.65;2.38;;;;;;;7.65;100.00;101080.16;5023424;28;20021;-65
2022/12/25 06:52:08;;;;;;;7.43;2.00;;;;;;;7.63;100.00;101076.59;5026454;28;20017;-65
2022/12/25 06:54:34;;;;;;;5.78;2.50;;;;;;;7.62;100.00;101072.28;5022667;28;20025;-66
2022/12/25 06:56:59;;;;;;;4.68;2.55;;;;;;;7.61;100.00;101057.59;5024728;28;20116;-65
2022/12/25 06:59:25;;;;;;;5.78;2.60;;;;;;;7.60;100.00;101048.09;5024053;28;20053;-65
2022/12/25 07:01:56;;;;;;;4.13;2.15;;;;;;;7.59;100.00;101055.75;5024331;28;20095;-65
2022/12/25 07:04:30;;;;;;;5.30;2.90;;;;;;;7.59;100.00;101054.03;5017605;28;20055;-65
2022/12/25 07:06:56;;;;;;;5.72;2.83;;;;;;;7.57;100.00;101050.53;5032778;28;20392;-65
2022/12/25 07:09:22;;;;;;;7.05;3.50;;;;;;;7.55;100.00;101047.00;5032620;28;20108;-65
2022/12/25 07:11:47;;;;;;;4.55;2.63;;;;;;;7.54;100.00;101045.22;5031881;28;20018;-65
2022/12/25 07:14:20;;;;;;;6.78;2.80;;;;;;;7.53;100.00;101057.25;5032820;28;20033;-65
2022/12/25 07:16:46;;;;;;;7.90;3.28;;;;;;;7.52;100.00;101067.50;5028714;28;20110;-65
2022/12/25 07:19:11;;;;;;;5.90;3.10;;;;;;;7.52;100.00;101062.31;5015046;28;20429;-65
2022/12/25 07:21:37;;;;;;;7.20;3.40;;;;;;;7.50;100.00;101063.94;5017810;28;20065;-65
2022/12/25 07:24:02;;;;;;;9.60;3.22;;;;;;;7.49;100.00;101069.91;5021502;28;20033;-65
2022/12/25 07:26:27;;;;;;;9.93;3.65;;;;;;;7.50;100.00;101082.00;5024898;28;20037;-65
2022/12/25 07:28:54;;;;;;;8.48;3.65;;;;;;;7.49;100.00;101080.22;5025743;28;20056;-65
2022/12/25 07:31:20;;;;;;;3.88;2.30;;;;;;;7.49;100.00;101085.38;5032287;28;20045;-65
2022/12/25 07:33:45;;;;;;;11.48;3.67;;;;;;;7.50;100.00;101089.72;5029214;28;20063;-65
2022/12/25 07:36:12;;;;;;;8.60;3.50;;;;;;;7.49;100.00;101093.09;5033018;28;20056;-65
2022/12/25 07:38:37;;;;;;;5.70;3.15;;;;;;;7.49;100.00;101088.84;5028710;28;20033;-65
2022/12/25 07:41:03;;;;;;;5.72;3.15;;;;;;;7.48;100.00;101089.66;5030248;28;20026;-65
2022/12/25 07:43:29;;;;;;;5.85;2.95;;;;;;;7.47;100.00;101082.72;5019314;28;20042;-65
2022/12/25 07:45:59;;;;;;;7.18;3.25;;;;;;;7.47;100.00;101058.63;5019207;28;20028;-65
2022/12/25 07:48:28;;;;;;;8.98;2.92;;;;;;;7.43;100.00;101047.28;5016774;28;20018;-65
2022/12/25 07:51:19;;;;;;;5.20;3.30;;;;;;;7.44;100.00;101062.84;5021916;28;20095;-66
2022/12/25 07:53:45;;;;;;;3.28;2.72;;;;;;;7.42;100.00;101059.31;5026579;28;20049;-66
2022/12/25 07:56:13;;;;;;;8.65;2.85;;;;;;;7.41;100.00;101074.69;5031597;28;20432;-65
2022/12/25 07:58:38;;;;;;;10.55;3.30;;;;;;;7.41;100.00;101074.69;5016896;28;20104;-65
2022/12/25 08:01:10;;;;;;;5.57;2.80;;;;;;;7.42;100.00;101091.94;5019768;28;20128;-65
2022/12/25 08:03:36;;;;;;;4.55;2.95;;;;;;;7.41;100.00;101106.50;5017640;28;20020;-66
2022/12/25 08:06:03;;;;;;;5.50;3.17;;;;;;;7.41;100.00;101111.66;5013342;28;20030;-65
2022/12/25 08:08:28;;;;;;;6.85;2.95;;;;;;;7.41;100.00;101105.66;5022985;28;20033;-65
2022/12/25 08:10:54;;;;;;;8.15;3.75;;;;;;;7.42;100.00;101107.41;5028652;28;20043;-65
2022/12/25 08:13:19;;;;;;;8.18;3.03;;;;;;;7.41;100.00;101113.38;5012280;28;20449;-65
2022/12/25 08:15:44;;;;;;;5.75;2.85;;;;;;;7.42;100.00;101125.44;5013696;28;20026;-65
2022/12/25 08:18:10;;;;;;;6.32;2.80;;;;;;;7.41;100.00;101132.28;5019735;28;20337;-66
2022/12/25 08:20:35;;;;;;;6.63;3.45;;;;;;;7.42;100.00;101153.81;5011545;28;20087;-65
2022/12/25 08:23:00;;;;;;;8.13;3.47;;;;;;;7.41;100.00;101163.22;5017389;28;20037;-65
2022/12/25 08:25:26;;;;;;;6.18;3.65;;;;;;;7.41;100.00;101146.91;5015312;28;20025;-65
2022/12/25 08:27:51;;;;;;;4.80;3.25;;;;;;;7.40;100.00;101127.94;5017343;28;20113;-66
2022/12/25 08:30:16;;;;;;;8.75;3.78;;;;;;;7.39;100.00;101112.41;5026981;28;20025;-66
2022/12/25 08:32:42;;;;;;;5.70;3.42;;;;;;;7.40;100.00;101125.38;5029177;28;20228;-65
2022/12/25 08:35:07;;;;;;;4.22;2.95;;;;;;;7.39;100.00;101123.63;5028695;28;20025;-65
2022/12/25 08:37:33;;;;;;;6.63;3.35;;;;;;;7.39;100.00;101123.63;5028232;28;20036;-65
2022/12/25 08:39:58;;;;;;;6.57;3.35;;;;;;;7.39;100.00;101128.78;5027650;28;20029;-65
2022/12/25 08:42:23;;;;;;;6.72;3.25;;;;;;;7.38;100.00;101134.72;5027759;28;20052;-65
2022/12/25 08:44:48;;;;;;;8.38;3.92;;;;;;;7.40;100.00;101139.94;5015430;28;20030;-65
2022/12/25 08:47:14;;;;;;;8.73;4.18;;;;;;;7.39;100.00;101149.41;5030191;28;20083;-65
2022/12/25 08:49:39;;;;;;;7.55;3.30;;;;;;;7.41;100.00;101147.75;5028432;28;20029;-66
2022/12/25 08:52:04;;;;;;;8.27;4.00;;;;;;;7.39;100.00;101133.94;5014083;28;20026;-65
2022/12/25 08:54:35;;;;;;;9.02;4.30;;;;;;;7.40;100.00;101142.53;5013449;28;20034;-65
2022/12/25 08:57:01;;;;;;;8.48;4.95;;;;;;;7.37;100.00;101130.38;5013380;28;20092;-65
2022/12/25 08:59:26;;;;;;;10.32;5.10;;;;;;;7.37;100.00;101124.34;5014630;28;20029;-65
2022/12/25 09:01:51;;;;;;;12.85;6.40;;;;;;;7.36;100.00;101120.88;5013664;28;20033;-65
2022/12/25 09:04:16;;;;;;;10.65;4.88;;;;;;;7.34;100.00;101112.16;5014478;28;20041;-65
2022/12/25 09:06:42;;;;;;;9.98;5.45;;;;;;;7.35;100.00;101120.78;5019637;28;20086;-66
2022/12/25 09:09:07;;;;;;;9.50;5.18;;;;;;;7.30;100.00;101098.22;5018861;28;20042;-66
2022/12/25 09:11:33;;;;;;;9.48;5.15;;;;;;;7.31;100.00;101099.13;5013182;28;20498;-65
2022/12/25 09:13:59;;;;;;;7.50;5.55;;;;;;;7.30;100.00;101097.38;5011902;28;20067;-65
2022/12/25 09:16:24;;;;;;;12.10;6.13;;;;;;;7.29;100.00;101098.16;5016826;28;20076;-65
2022/12/25 09:18:49;;;;;;;8.40;5.35;;;;;;;7.27;100.00;101116.13;5017498;28;20030;-65
2022/12/25 09:21:15;;;;;;;9.50;6.75;;;;;;;7.29;100.00;101129.09;5015201;28;20075;-65
2022/12/25 09:23:41;;;;;;;8.70;5.38;;;;;;;7.29;100.00;101132.56;5018311;28;20132;-65
2022/12/25 09:26:09;;;;;;;9.90;5.40;;;;;;;7.31;100.00;101124.91;5016357;28;20024;-66
2022/12/25 09:28:35;;;;;;;6.57;5.13;;;;;;;7.32;100.00;101132.72;5022164;28;20075;-65
2022/12/25 09:31:00;;;;;;;8.18;6.10;;;;;;;7.30;100.00;101116.28;5028410;28;20474;-65
2022/12/25 09:33:26;;;;;;;11.10;6.10;;;;;;;7.30;100.00;101108.53;5017629;28;20474;-65
2022/12/25 09:35:56;;;;;;;7.88;5.53;;;;;;;7.30;100.00;101118.00;5023961;28;20809;-65
2022/12/25 09:38:21;;;;;;;9.68;5.32;;;;;;;7.30;100.00;101118.00;5021724;28;20056;-65
2022/12/25 09:40:47;;;;;;;9.73;6.20;;;;;;;7.30;100.00;101087.06;5018140;28;20057;-65
2022/12/25 09:43:16;;;;;;;12.48;6.57;;;;;;;7.28;100.00;101073.22;5023341;28;20044;-65
2022/12/25 09:45:43;;;;;;;13.80;7.65;;;;;;;7.30;100.00;101087.06;5027742;28;20022;-65
2022/12/25 09:48:12;;;;;;;11.77;6.78;;;;;;;7.30;100.00;101102.53;5027721;28;20029;-65
2022/12/25 09:50:50;;;;;;;9.98;6.00;;;;;;;7.29;100.00;101090.44;5027899;28;20045;-65
2022/12/25 09:53:25;;;;;;;10.35;6.85;;;;;;;7.30;100.00;101094.78;5027932;28;20017;-65
2022/12/25 09:56:00;;;;;;;14.13;6.32;;;;;;;7.30;100.00;101079.31;5028007;28;20052;-65
2022/12/25 09:58:27;;;;;;;8.73;6.28;;;;;;;7.30;100.00;101072.47;5021634;28;20033;-66
2022/12/25 10:01:05;;;;;;;9.43;5.68;;;;;;;7.29;100.00;101069.81;5020328;28;20037;-65
2022/12/25 10:03:39;;;;;;;8.98;5.25;;;;;;;7.29;100.00;101078.44;5027516;28;20404;-65
2022/12/25 10:06:23;;;;;;;9.18;6.38;;;;;;;7.28;100.00;101065.47;5025507;28;20053;-65
2022/12/25 10:09:16;;;;;;;9.40;6.35;;;;;;;7.29;100.00;101059.50;5027058;28;20091;-65
2022/12/25 10:11:54;;;;;;;7.75;5.85;;;;;;;7.26;100.00;101060.25;5014730;28;20076;-65
2022/12/25 10:14:37;;;;;;;8.35;5.75;;;;;;;7.26;100.00;101049.03;5025120;28;20032;-65
2022/12/25 10:17:23;;;;;;;11.52;5.75;;;;;;;7.27;100.00;101056.84;5026521;28;20537;-65
2022/12/25 10:20:04;;;;;;;10.88;6.35;;;;;;;7.27;100.00;101050.78;5015381;28;20044;-65
2022/12/25 10:22:34;;;;;;;9.13;6.35;;;;;;;7.28;100.00;101052.59;5024925;28;20030;-65
2022/12/25 10:25:01;;;;;;;11.73;6.18;;;;;;;7.29;100.00;101059.50;5026521;28;20025;-65
2022/12/25 10:27:33;;;;;;;9.20;5.70;;;;;;;7.31;100.00;101055.31;5022473;28;20088;-65
2022/12/25 10:29:58;;;;;;;;;;;;;;;7.33;100.00;101043.38;5027337;28;20132;-65
2022/12/25 10:32:24;;;;;;;9.20;6.68;;;;;;;7.33;100.00;101045.94;5026352;28;20008;-65
2022/12/25 10:34:49;;;;;;;9.13;6.45;;;;;;;7.34;100.00;101052.88;5026574;28;20113;-65
2022/12/25 10:37:15;;;;;;;11.18;6.50;;;;;;;7.33;100.00;101051.09;5025689;28;20045;-66
2022/12/25 10:39:42;;;;;;;13.02;5.65;;;;;;;7.33;100.00;101052.00;5026489;28;20060;-65
2022/12/25 10:42:29;;;;;;;9.55;6.30;;;;;;;7.32;100.00;101050.22;5026267;28;20022;-65
2022/12/25 10:44:56;;;;;;;14.63;7.45;;;;;;;7.32;100.00;101045.06;5018846;28;20022;-65
2022/12/25 10:47:24;;;;;;;8.65;6.82;;;;;;;7.32;100.00;101046.78;5014950;28;20492;-65
2022/12/25 10:49:50;;;;;;;10.30;6.53;;;;;;;7.31;100.00;101042.41;5014050;28;20047;-65
2022/12/25 10:52:21;;;;;;;9.85;7.20;;;;;;;7.32;100.00;101032.16;5014135;28;20053;-65
2022/12/25 10:54:46;;;;;;;11.48;6.88;;;;;;;7.31;100.00;101017.53;5014588;28;20566;-65
2022/12/25 10:57:17;;;;;;;10.50;8.45;;;;;;;7.31;100.00;101003.75;5012297;28;20061;-65
2022/12/25 10:59:57;;;;;;;12.20;7.03;;;;;;;7.30;100.00;100994.25;5013044;28;20217;-66
2022/12/25 11:02:29;;;;;;;11.80;8.38;;;;;;;7.30;100.00;100987.38;5009483;28;20025;-65
2022/12/25 11:05:27;;;;;;;14.13;7.88;;;;;;;7.31;100.00;100988.28;5013012;28;20029;-65
2022/12/25 11:07:54;;;;;;;14.93;7.40;;;;;;;7.33;100.00;100991.81;5023612;28;20021;-65
2022/12/25 11:10:27;;;;;;;9.52;6.97;;;;;;;7.34;100.00;100996.16;5010246;28;20433;-65
2022/12/25 11:12:53;;;;;;;11.70;7.75;;;;;;;7.34;100.00;101001.31;5010859;28;20018;-65
2022/12/25 11:15:41;;;;;;;10.73;7.32;;;;;;;7.35;100.00;101000.50;5008734;28;20142;-65
2022/12/25 11:18:17;;;;;;;10.52;7.28;;;;;;;7.34;100.00;100988.41;5008306;28;20474;-65
2022/12/25 11:20:55;;;;;;;27.02;14.98;;;;;;;7.36;100.00;100983.34;5008597;28;20044;-65
2022/12/25 11:23:22;;;;;;;26.05;21.02;;;;;;;7.36;100.00;100984.22;5008695;28;20030;-66
2022/12/25 11:26:04;;;;;;;26.23;19.60;;;;;;;7.39;100.00;100974.06;5008933;28;20022;-65
2022/12/25 11:28:30;;;;;;;;;;;;;;;7.39;100.00;100963.75;5009232;28;20937;-65
2022/12/25 11:31:01;;;;;;;14.05;9.70;;;;;;;7.40;100.00;100957.78;5009359;28;19913;-65
2022/12/25 11:33:36;;;;;;;11.55;9.02;;;;;;;7.41;100.00;100941.47;5008462;28;20022;-65
2022/12/25 11:36:11;;;;;;;13.25;9.43;;;;;;;7.39;100.00;100952.56;5013115;28;20036;-65
2022/12/25 11:38:36;;;;;;;11.85;7.78;;;;;;;7.42;100.00;100944.94;5014195;28;20030;-65
2022/12/25 11:41:04;;;;;;;11.98;7.82;;;;;;;7.40;100.00;100932.00;5008572;28;20029;-65
2022/12/25 11:43:39;;;;;;;12.43;8.55;;;;;;;7.40;100.00;100934.56;5013439;28;20036;-65
2022/12/25 11:46:17;;;;;;;9.98;7.55;;;;;;;7.40;100.00;100926.84;5013346;28;20025;-65
2022/12/25 11:48:49;;;;;;;10.80;8.77;;;;;;;7.41;100.00;100930.31;5017929;28;20040;-65
2022/12/25 11:51:15;;;;;;;11.20;8.70;;;;;;;7.41;100.00;100936.31;5011813;28;20056;-65
2022/12/25 11:53:46;;;;;;;11.80;8.75;;;;;;;7.41;100.00;100931.16;5019603;28;20160;-65
2022/12/25 11:56:21;;;;;;;10.32;8.90;;;;;;;7.43;100.00;100929.53;5014136;28;20037;-65
2022/12/25 11:58:50;;;;;;;11.93;8.82;;;;;;;7.42;100.00;100917.47;5018212;28;20474;-65
2022/12/25 12:01:28;;;;;;;11.68;9.23;;;;;;;7.41;100.00;100900.22;5021411;28;20021;-65
2022/12/25 12:03:53;;;;;;;11.80;9.57;;;;;;;7.41;100.00;100905.38;5014913;28;20441;-65
2022/12/25 12:06:25;;;;;;;13.88;10.23;;;;;;;7.40;100.00;100903.63;5012705;28;20037;-65
2022/12/25 12:08:59;;;;;;;14.10;10.52;;;;;;;7.41;100.00;100914.84;5015171;28;20041;-65
2022/12/25 12:11:32;;;;;;;14.75;10.98;;;;;;;7.40;100.00;100903.63;5024349;28;20067;-65
2022/12/25 12:14:00;;;;;;;14.05;11.00;;;;;;;7.40;100.00;100903.63;5018253;28;20040;-65
2022/12/25 12:16:25;;;;;;;15.40;11.48;;;;;;;7.40;100.00;100911.38;5019355;28;20132;-65
2022/12/25 12:18:50;;;;;;;14.75;12.07;;;;;;;7.41;100.00;100917.41;5014304;28;20415;-66
2022/12/25 12:21:24;;;;;;;14.20;11.50;;;;;;;7.40;100.00;100913.94;5015684;28;20034;-65
2022/12/25 12:24:14;;;;;;;13.20;11.85;;;;;;;7.42;100.00;100906.28;5013898;28;20417;-65
2022/12/25 12:26:43;;;;;;;16.45;12.32;;;;;;;7.42;100.00;100911.44;5023221;28;20033;-65
2022/12/25 12:29:25;;;;;;;15.25;12.43;;;;;;;7.41;100.00;100905.38;5014549;28;20088;-65
2022/12/25 12:32:00;;;;;;;16.08;13.13;;;;;;;7.43;100.00;100900.28;5012924;28;20061;-65
2022/12/25 12:34:30;;;;;;;20.27;14.73;;;;;;;7.42;100.00;100890.81;5016002;28;20029;-66
2022/12/25 12:37:18;;;;;;;19.58;13.70;;;;;;;7.43;100.00;100882.25;5012460;28;20036;-65
2022/12/25 12:39:44;;;;;;;17.95;13.80;;;;;;;7.44;100.00;100872.03;5012931;28;20025;-66
2022/12/25 12:42:16;;;;;;;17.70;14.70;;;;;;;7.47;100.00;100862.63;5018389;28;20025;-65
2022/12/25 12:44:44;;;;;;;16.85;15.13;;;;;;;7.49;100.00;100861.00;5029173;28;20033;-65
2022/12/25 12:47:48;;;;;;;18.88;14.27;;;;;;;7.51;100.00;100868.03;5022225;28;20061;-65
2022/12/25 12:50:34;;;;;;;19.63;14.68;;;;;;;7.53;100.00;100862.94;4966952;28;20046;-65
2022/12/25 12:53:17;;;;;;;16.13;14.13;;;;;;;7.53;100.00;100871.56;5007879;28;20053;-65
2022/12/25 12:55:43;;;;;;;16.35;14.45;;;;;;;7.53;100.00;100868.97;5010064;28;20058;-66
2022/12/25 12:58:26;;;;;;;16.38;14.55;;;;;;;7.54;100.00;100865.56;5009725;28;20451;-66
2022/12/25 13:01:02;;;;;;;17.13;14.57;;;;;;;7.55;100.00;100863.88;5009579;28;20137;-66
2022/12/25 13:03:51;;;;;;;20.15;15.93;;;;;;;7.56;100.00;100863.94;5008679;28;20474;-66
2022/12/25 13:06:24;;;;;;;20.13;16.00;;;;;;;7.56;100.00;100858.78;5026487;28;20096;-65
2022/12/25 13:09:02;;;;;;;22.17;17.30;;;;;;;7.58;100.00;100851.13;5017422;28;20402;-66
2022/12/25 13:11:32;;;;;;;21.90;16.50;;;;;;;7.59;100.00;100850.28;5008991;28;20033;-65
2022/12/25 13:14:01;;;;;;;22.35;17.65;;;;;;;7.60;100.00;100835.72;5009260;28;20034;-65